Latest Coastal Weather Observations for Groote Eylandt Airport

IDD60701

Issued at 11:45 am CST Thursday 24 April 2014 (issued every 10 minutes, with the page automatically refreshed every 10 minutes)

About coastal observations | Map of coastal stations | Coastal observations for NT | Marine services | Other Formats
Station Details ID: 014518 Name: GROOTE EYLANDT AIRPORT Lat: -13.97 Lon: 136.46 Height: 13.7 m
Data from the previous 72 hours. | See also: Recent months at Groote Eylandt Airport
Date/Time
CST
Temp

°C
Wind Pressure Rain
since 9am
mm
Weather Cloud Vis
km
Sea
Height
m
Swell
Dir
 
Speed
knots
Gust
knots
hPa Trend Height
m
Period
s
Dir
24/11:30am 29.7 N 6 9 1008.1 - 0.0 - - - - - - -
24/11:00am 29.2 NW 7 8 1008.7 - 0.0 - - - - - - -
24/10:30am 29.1 NNW 6 8 1008.9 - 0.0 - - - - - - -
24/10:00am 29.5 NNW 5 7 1009.2 - 0.0 - - - - - - -
24/09:30am 29.1 NNW 4 6 1009.3 - 0.0 - - - - - - -
24/09:00am 27.9 WNW 5 7 1008.8 - 0.0 - - - - - - -
24/08:30am 27.8 NW 6 8 1008.5 - 0.0 - - - - - - -
24/08:00am 26.7 NNW 4 5 1008.0 - 0.0 - - - - - - -
24/07:30am 25.5 N 3 5 1007.5 - 0.0 - - - - - - -
24/07:00am 24.9 N 3 4 1007.3 - 0.0 - - - - - - -
24/06:30am 24.6 CALM 0 2 1007.1 - 0.0 - - - - - - -
24/06:00am 25.0 NNW 4 5 1007.0 - 0.0 - - - - - - -
24/05:30am 25.1 N 5 7 1007.0 - 0.0 - - - - - - -
24/05:00am 25.0 N 4 6 1006.7 - 0.0 - - - - - - -
24/04:30am 25.1 N 4 6 1006.4 - 0.0 - - - - - - -
24/04:00am 25.1 N 6 8 1006.0 - 0.0 - - - - - - -
24/03:30am 25.1 N 6 10 1005.9 - 0.0 - - - - - - -
24/03:00am 25.2 N 4 6 1006.2 - 0.0 - - - - - - -
24/02:30am 25.1 NNE 4 5 1006.6 - 0.0 - - - - - - -
24/02:00am 25.4 N 4 5 1007.1 - 0.0 - - - - - - -
24/01:30am 25.5 CALM 0 0 1007.8 - 0.0 - - - - - - -
24/01:00am 25.2 CALM 0 0 1008.0 - 0.0 - - - - - - -
24/12:30am 25.3 CALM 0 0 1008.2 - 0.0 - - - - - - -
24/12:00am 25.2 N 0 0 1008.3 - 0.0 - - - - - - -
 
Date/Time
CST
Temp

°C
Wind Pressure Rain
since 9am
mm
Weather Cloud Vis
km
Sea
Height
m
Swell
Dir
 
Speed
knots
Gust
knots
hPa Trend Height
m
Period
s
Dir
23/11:30pm 25.3 N 2 3 1008.7 - 0.0 - - - - - - -
23/11:00pm 25.1 N 3 4 1009.2 - 0.0 - - - - - - -
23/10:30pm 24.8 CALM 0 0 1009.1 - 0.0 - - - - - - -
23/10:00pm 24.8 CALM 0 0 1009.2 - 0.0 - - - - - - -
23/09:30pm 25.0 CALM 0 0 1009.1 - 0.0 - - - - - - -
23/09:00pm 25.3 NNE 6 8 1009.4 - 0.0 - - - - - - -
23/08:30pm 25.7 NNE 8 11 1008.9 - 0.0 - - - - - - -
23/08:00pm 25.7 NNE 4 6 1008.9 - 0.0 - - - - - - -
23/07:30pm 25.8 NNE 2 4 1008.4 - 0.0 - - - - - - -
23/07:00pm 25.8 CALM 0 0 1008.3 - 0.0 - - - - - - -
23/06:30pm 26.0 CALM 0 0 1008.0 - 0.0 - - - - - - -
23/06:00pm 26.1 ESE 1 3 1007.7 - 0.0 - - - - - - -
23/05:30pm 26.2 ESE 3 4 1007.1 - 0.0 - - - - - - -
23/05:00pm 26.1 ENE 3 4 1007.1 - 0.0 - - - - - - -
23/04:30pm 25.8 ESE 4 5 1007.2 - 0.0 - - - - - - -
23/04:00pm 25.7 S 4 5 1007.1 - 0.0 - - - - - - -
23/03:30pm 27.1 SW 4 7 1007.0 - 0.0 - - - - - - -
23/03:00pm 27.6 SSW 5 8 1007.1 - 0.0 - - - - - - -
23/02:30pm 27.8 SSW 5 10 1007.3 - 0.0 - - - - - - -
23/02:00pm 27.4 S 5 8 1007.6 - 0.0 - - - - - - -
23/01:30pm 26.4 SSW 4 7 1008.3 - 0.0 - - - - - - -
23/01:00pm 26.4 SSW 6 11 1008.6 - 0.0 - - - - - - -
23/12:30pm 27.1 SW 5 7 1009.0 - 0.0 - - - - - - -
23/12:00pm 27.5 WSW 4 7 1009.3 - 0.0 - - - - - - -
23/11:30am 26.9 SSW 4 6 1009.9 - 0.0 - - - - - - -
23/11:00am 26.9 SSW 5 7 1010.4 - 0.0 - - - - - - -
23/10:30am 27.0 WSW 4 7 1010.5 - 0.0 - - - - - - -
23/10:00am 27.2 WNW 3 6 1010.7 - 0.0 - - - - - - -
23/09:30am 26.6 CALM 0 0 1010.9 - 0.0 - - - - - - -
23/09:00am 25.7 ENE 1 5 1010.7 - 0.0 - - - - - - -
23/08:30am 25.5 CALM 0 0 1010.6 - 0.0 - - - - - - -
23/08:00am 25.2 CALM 0 0 1010.1 - 0.0 - - - - - - -
23/07:30am 24.8 CALM 0 0 1009.8 - 0.0 - - - - - - -
23/07:00am 24.5 CALM 0 0 1009.9 - 0.0 - - - - - - -
23/06:30am 24.4 CALM 0 0 1009.2 - 0.0 - - - - - - -
23/06:00am 24.5 CALM 0 0 1009.0 - 0.0 - - - - - - -
23/05:30am 24.3 CALM 0 0 1008.6 - 0.0 - - - - - - -
23/05:00am 24.5 CALM 0 0 1008.7 - 0.0 - - - - - - -
23/04:30am 24.4 E 2 4 1008.5 - 0.0 - - - - - - -
23/04:00am 24.4 ESE 2 4 1008.4 - 0.0 - - - - - - -
23/03:30am 24.3 CALM 0 0 1008.2 - 0.0 - - - - - - -
23/03:00am 24.3 CALM 0 0 1008.3 - 0.0 - - - - - - -
23/02:30am 24.2 ESE 1 3 1008.3 - 0.0 - - - - - - -
23/02:00am 24.3 E 6 9 1009.0 - 0.0 - - - - - - -
23/01:30am 24.4 CALM 0 0 1009.9 - 0.0 - - - - - - -
23/01:00am 24.4 SSE 3 4 1010.2 - 0.0 - - - - - - -
23/12:30am 24.6 ENE 4 7 1010.6 - 0.0 - - - - - - -
23/12:00am 24.4 NE 5 6 1010.7 - 0.0 - - - - - - -
 
Date/Time
CST
Temp

°C
Wind Pressure Rain
since 9am
mm
Weather Cloud Vis
km
Sea
Height
m
Swell
Dir
 
Speed
knots
Gust
knots
hPa Trend Height
m
Period
s
Dir
22/11:30pm 24.5 E 6 9 1010.7 - 0.0 - - - - - - -
22/11:00pm 24.7 N 5 6 1010.6 - 0.0 - - - - - - -
22/10:30pm 25.1 NE 2 4 1010.7 - 0.0 - - - - - - -
22/10:00pm 25.0 CALM 0 0 1010.7 - 0.0 - - - - - - -
22/09:30pm 25.3 CALM 0 0 1010.7 - 0.0 - - - - - - -
22/09:00pm 25.3 E 4 6 1010.5 - 0.0 - - - - - - -
22/08:30pm 25.3 ENE 5 6 1010.5 - 0.0 - - - - - - -
22/08:00pm 25.1 SE 3 4 1010.2 - 0.0 - - - - - - -
22/07:30pm 25.1 SE 4 5 1010.1 - 0.0 - - - - - - -
22/07:00pm 25.4 E 4 6 1009.4 - 0.0 - - - - - - -
22/06:30pm 25.4 E 5 6 1009.1 - 0.0 - - - - - - -
22/06:00pm 25.6 E 7 10 1008.8 - 0.0 - - - - - - -
22/05:30pm 25.7 E 9 12 1008.7 - 0.0 - - - - - - -
22/05:00pm 25.7 E 7 10 1008.3 - 0.0 - - - - - - -
22/04:30pm 25.6 E 9 11 1008.3 - 0.0 - - - - - - -
22/04:00pm 25.3 E 7 9 1008.3 - 0.0 - - - - - - -
22/03:30pm 24.9 E 5 8 1008.3 - 0.0 - - - - - - -
22/03:00pm 26.2 ESE 9 16 1008.3 - 0.0 - - - - - - -
22/02:30pm 26.7 E 12 18 1008.3 - 0.0 - - - - - - -
22/02:00pm 26.0 E 10 13 1008.6 - 0.0 - - - - - - -
22/01:30pm 26.7 ESE 9 16 1009.0 - 0.0 - - - - - - -
22/01:00pm 28.4 ESE 9 14 1009.2 - 0.0 - - - - - - -
22/12:30pm 28.0 ESE 7 13 1009.6 - 0.0 - - - - - - -
22/12:00pm 27.2 E 12 15 1010.2 - 0.0 - - - - - - -
22/11:30am 26.6 E 9 13 1011.0 - 0.0 - - - - - - -
22/11:00am 26.9 E 10 15 1011.4 - 0.0 - - - - - - -
22/10:30am 26.3 ESE 5 8 1011.9 - 0.0 - - - - - - -
22/10:00am 26.1 E 10 13 1012.0 - 0.0 - - - - - - -
22/09:30am 29.4 E 8 11 1011.7 - 0.0 - - - - - - -
22/09:00am 28.7 E 12 16 1011.2 - 0.0 - - - - - - -
22/08:30am 27.9 E 9 12 1011.2 - 0.0 - - - - - - -
22/08:00am 26.9 E 7 10 1011.3 - 0.0 - - - - - - -
22/07:30am 25.2 CALM 0 3 1011.2 - 0.0 - - - - - - -
22/07:00am 25.0 SE 5 8 1011.0 - 0.0 - - - - - - -
22/06:30am 25.2 SSE 1 4 1010.4 - 0.0 - - - - - - -
22/06:00am 25.3 SE 5 8 1010.1 - 0.0 - - - - - - -
22/05:30am 25.1 E 5 6 1009.9 - 0.0 - - - - - - -
22/05:00am 24.7 SE 3 4 1009.7 - 0.0 - - - - - - -
22/04:30am 24.3 SSE 2 4 1009.8 - 0.0 - - - - - - -
22/04:00am 24.3 CALM 0 0 1010.0 - 0.0 - - - - - - -
22/03:30am 24.5 CALM 0 0 1010.0 - 0.0 - - - - - - -
22/03:00am 24.7 CALM 0 0 1009.9 - 0.0 - - - - - - -
22/02:30am 25.4 CALM 0 0 1010.0 - 0.0 - - - - - - -
22/02:00am 25.9 SE 1 4 1010.0 - 0.0 - - - - - - -
22/01:30am 25.7 SSE 3 4 1010.2 - 0.0 - - - - - - -
22/01:00am 25.8 SE 3 4 1010.6 - 0.0 - - - - - - -
22/12:30am 26.1 CALM 0 3 1010.9 - 0.0 - - - - - - -
22/12:00am 26.3 SE 1 4 1011.1 - 0.0 - - - - - - -
 
Date/Time
CST
Temp

°C
Wind Pressure Rain
since 9am
mm
Weather Cloud Vis
km
Sea
Height
m
Swell
Dir
 
Speed
knots
Gust
knots
hPa Trend Height
m
Period
s
Dir
21/11:30pm 26.3 SE 2 5 1011.2 - 0.0 - - - - - - -
21/11:00pm 26.2 CALM 0 2 1011.3 - 0.0 - - - - - - -
21/10:30pm 26.3 SE 3 4 1011.1 - 0.0 - - - - - - -
21/10:00pm 26.2 SE 3 4 1011.3 - 0.0 - - - - - - -
21/09:30pm 25.8 CALM 0 0 1011.5 - 0.0 - - - - - - -
21/09:00pm 26.2 SSE 2 4 1011.3 - 0.0 - - - - - - -
21/08:30pm 26.6 ESE 4 6 1011.4 - 0.0 - - - - - - -
21/08:00pm 26.5 ESE 2 5 1011.1 - 0.0 - - - - - - -
21/07:30pm 27.2 SE 2 4 1011.0 - 0.0 - - - - - - -
21/07:00pm 27.5 SE 3 5 1010.8 - 0.0 - - - - - - -
21/06:30pm 27.9 ESE 5 8 1010.7 - 0.0 - - - - - - -
21/06:00pm 28.5 ESE 7 11 1010.4 - 0.0 - - - - - - -
21/05:30pm 29.3 ESE 8 11 1010.4 - 0.0 - - - - - - -
21/05:00pm 29.7 ESE 7 13 1010.3 - 0.0 - - - - - - -
21/04:30pm 30.3 E 9 15 1010.1 - 0.0 - - - - - - -
21/04:00pm 30.8 E 11 15 1009.9 - 0.0 - - - - - - -
21/03:30pm 30.9 E 12 16 1009.8 - 0.0 - - - - - - -
21/03:00pm 31.2 ESE 10 15 1009.5 - 0.0 - - - - - - -
21/02:30pm 31.3 E 10 16 1009.6 - 0.0 - - - - - - -
21/02:00pm 31.6 E 14 19 1009.8 - 0.0 - - - - - - -
21/01:30pm 31.8 E 14 19 1010.0 - 0.0 - - - - - - -
21/01:00pm 31.9 E 12 20 1010.3 - 0.0 - - - - - - -
21/12:30pm 31.8 E 12 18 1010.4 - 0.0 - - - - - - -
21/12:00pm 31.5 E 13 20 1010.6 - 0.0 - - - - - - -

Other Formats:

Comma delimited format used in spreadsheet applications
http://www.bom.gov.au/fwo/IDD60701/IDD60701.94153.axf

JavaScript Object Notation format (JSON) in row-major order
http://www.bom.gov.au/fwo/IDD60701/IDD60701.94153.json